sensor_id;sensor_type;location;lat;lon;timestamp;P1;durP1;ratioP1;P2;durP2;ratioP2
6864;SDS011;3471;49.678;8.388;2023-12-22T00:02:16;1.30;;;0.77;;
6864;SDS011;3471;49.678;8.388;2023-12-22T00:04:42;1.40;;;0.90;;
6864;SDS011;3471;49.678;8.388;2023-12-22T00:07:07;1.30;;;0.70;;
6864;SDS011;3471;49.678;8.388;2023-12-22T00:09:33;1.60;;;1.02;;
6864;SDS011;3471;49.678;8.388;2023-12-22T00:11:58;1.20;;;0.60;;
6864;SDS011;3471;49.678;8.388;2023-12-22T00:14:24;1.25;;;0.80;;
6864;SDS011;3471;49.678;8.388;2023-12-22T00:16:50;1.20;;;0.65;;
6864;SDS011;3471;49.678;8.388;2023-12-22T00:19:15;1.20;;;0.60;;
6864;SDS011;3471;49.678;8.388;2023-12-22T00:21:41;1.40;;;0.80;;
6864;SDS011;3471;49.678;8.388;2023-12-22T00:24:06;1.90;;;0.90;;
6864;SDS011;3471;49.678;8.388;2023-12-22T00:26:32;1.90;;;0.90;;
6864;SDS011;3471;49.678;8.388;2023-12-22T00:28:57;1.50;;;0.90;;
6864;SDS011;3471;49.678;8.388;2023-12-22T00:31:23;1.90;;;1.10;;
6864;SDS011;3471;49.678;8.388;2023-12-22T00:33:48;1.30;;;0.80;;
6864;SDS011;3471;49.678;8.388;2023-12-22T00:36:14;1.40;;;0.80;;
6864;SDS011;3471;49.678;8.388;2023-12-22T00:38:40;1.70;;;1.30;;
6864;SDS011;3471;49.678;8.388;2023-12-22T00:41:05;1.60;;;0.70;;
6864;SDS011;3471;49.678;8.388;2023-12-22T00:43:31;1.30;;;0.90;;
6864;SDS011;3471;49.678;8.388;2023-12-22T00:45:57;1.50;;;0.90;;
6864;SDS011;3471;49.678;8.388;2023-12-22T00:48:23;1.30;;;0.70;;
6864;SDS011;3471;49.678;8.388;2023-12-22T00:50:48;1.20;;;0.70;;
6864;SDS011;3471;49.678;8.388;2023-12-22T00:53:14;1.30;;;0.70;;
6864;SDS011;3471;49.678;8.388;2023-12-22T00:55:39;1.70;;;1.20;;
6864;SDS011;3471;49.678;8.388;2023-12-22T00:58:05;1.20;;;0.60;;
6864;SDS011;3471;49.678;8.388;2023-12-22T01:00:30;1.30;;;0.80;;
6864;SDS011;3471;49.678;8.388;2023-12-22T01:02:56;1.30;;;0.77;;
6864;SDS011;3471;49.678;8.388;2023-12-22T01:05:22;1.20;;;0.60;;
6864;SDS011;3471;49.678;8.388;2023-12-22T01:07:47;1.70;;;0.80;;
6864;SDS011;3471;49.678;8.388;2023-12-22T01:10:13;1.20;;;0.70;;
6864;SDS011;3471;49.678;8.388;2023-12-22T01:12:38;1.20;;;0.60;;
6864;SDS011;3471;49.678;8.388;2023-12-22T01:15:04;6.78;;;0.88;;
6864;SDS011;3471;49.678;8.388;2023-12-22T01:17:30;1.40;;;0.90;;
6864;SDS011;3471;49.678;8.388;2023-12-22T01:19:56;1.37;;;0.80;;
6864;SDS011;3471;49.678;8.388;2023-12-22T01:22:21;2.60;;;1.00;;
6864;SDS011;3471;49.678;8.388;2023-12-22T01:24:48;1.30;;;0.65;;
6864;SDS011;3471;49.678;8.388;2023-12-22T01:27:13;1.50;;;0.80;;
6864;SDS011;3471;49.678;8.388;2023-12-22T01:29:39;1.80;;;1.10;;
6864;SDS011;3471;49.678;8.388;2023-12-22T01:32:05;3.00;;;1.70;;
6864;SDS011;3471;49.678;8.388;2023-12-22T01:34:31;1.80;;;0.93;;
6864;SDS011;3471;49.678;8.388;2023-12-22T01:36:57;2.40;;;1.30;;
6864;SDS011;3471;49.678;8.388;2023-12-22T01:39:22;1.60;;;0.80;;
6864;SDS011;3471;49.678;8.388;2023-12-22T01:41:48;3.70;;;1.30;;
6864;SDS011;3471;49.678;8.388;2023-12-22T01:44:13;1.70;;;1.40;;
6864;SDS011;3471;49.678;8.388;2023-12-22T01:46:39;1.40;;;0.70;;
6864;SDS011;3471;49.678;8.388;2023-12-22T01:49:04;1.60;;;0.90;;
6864;SDS011;3471;49.678;8.388;2023-12-22T01:51:32;1.20;;;0.70;;
6864;SDS011;3471;49.678;8.388;2023-12-22T01:54:02;1.50;;;0.80;;
6864;SDS011;3471;49.678;8.388;2023-12-22T01:56:29;2.10;;;1.30;;
6864;SDS011;3471;49.678;8.388;2023-12-22T01:58:57;1.50;;;1.00;;
6864;SDS011;3471;49.678;8.388;2023-12-22T02:01:25;1.30;;;0.70;;
6864;SDS011;3471;49.678;8.388;2023-12-22T02:03:52;1.30;;;0.90;;
6864;SDS011;3471;49.678;8.388;2023-12-22T02:06:19;1.70;;;0.90;;
6864;SDS011;3471;49.678;8.388;2023-12-22T02:08:46;8.18;;;1.50;;
6864;SDS011;3471;49.678;8.388;2023-12-22T02:11:12;3.60;;;1.25;;
6864;SDS011;3471;49.678;8.388;2023-12-22T02:13:39;1.58;;;0.80;;
6864;SDS011;3471;49.678;8.388;2023-12-22T02:16:06;1.27;;;0.75;;
6864;SDS011;3471;49.678;8.388;2023-12-22T02:18:41;1.90;;;0.95;;
6864;SDS011;3471;49.678;8.388;2023-12-22T02:21:10;7.30;;;1.45;;
6864;SDS011;3471;49.678;8.388;2023-12-22T02:23:36;2.10;;;0.93;;
6864;SDS011;3471;49.678;8.388;2023-12-22T02:26:05;2.70;;;0.80;;
6864;SDS011;3471;49.678;8.388;2023-12-22T02:28:37;1.30;;;0.80;;
6864;SDS011;3471;49.678;8.388;2023-12-22T02:33:42;2.90;;;1.55;;
6864;SDS011;3471;49.678;8.388;2023-12-22T02:36:10;1.55;;;1.05;;
6864;SDS011;3471;49.678;8.388;2023-12-22T02:38:37;1.90;;;1.13;;
6864;SDS011;3471;49.678;8.388;2023-12-22T02:41:05;1.83;;;1.05;;
6864;SDS011;3471;49.678;8.388;2023-12-22T02:43:31;2.30;;;1.38;;
6864;SDS011;3471;49.678;8.388;2023-12-22T02:45:57;8.23;;;2.23;;
6864;SDS011;3471;49.678;8.388;2023-12-22T02:48:22;7.25;;;1.98;;
6864;SDS011;3471;49.678;8.388;2023-12-22T02:50:48;5.60;;;1.37;;
6864;SDS011;3471;49.678;8.388;2023-12-22T02:53:13;17.30;;;2.17;;
6864;SDS011;3471;49.678;8.388;2023-12-22T02:55:39;3.00;;;1.70;;
6864;SDS011;3471;49.678;8.388;2023-12-22T02:58:04;1.80;;;1.50;;
6864;SDS011;3471;49.678;8.388;2023-12-22T03:00:30;4.88;;;1.45;;
6864;SDS011;3471;49.678;8.388;2023-12-22T03:02:56;1.80;;;1.40;;
6864;SDS011;3471;49.678;8.388;2023-12-22T03:05:21;6.00;;;1.70;;
6864;SDS011;3471;49.678;8.388;2023-12-22T03:07:47;2.50;;;1.17;;
6864;SDS011;3471;49.678;8.388;2023-12-22T03:10:12;5.10;;;1.70;;
6864;SDS011;3471;49.678;8.388;2023-12-22T03:12:38;3.70;;;2.30;;
6864;SDS011;3471;49.678;8.388;2023-12-22T03:15:04;9.50;;;1.60;;
6864;SDS011;3471;49.678;8.388;2023-12-22T03:17:30;2.45;;;1.30;;
6864;SDS011;3471;49.678;8.388;2023-12-22T03:19:55;1.80;;;1.00;;
6864;SDS011;3471;49.678;8.388;2023-12-22T03:22:21;2.20;;;0.90;;
6864;SDS011;3471;49.678;8.388;2023-12-22T03:24:47;3.37;;;1.80;;
6864;SDS011;3471;49.678;8.388;2023-12-22T03:27:12;5.50;;;1.70;;
6864;SDS011;3471;49.678;8.388;2023-12-22T03:29:41;5.30;;;1.50;;
6864;SDS011;3471;49.678;8.388;2023-12-22T03:32:10;4.00;;;1.77;;
6864;SDS011;3471;49.678;8.388;2023-12-22T03:34:35;5.90;;;2.50;;
6864;SDS011;3471;49.678;8.388;2023-12-22T03:37:01;2.33;;;1.50;;
6864;SDS011;3471;49.678;8.388;2023-12-22T03:39:26;3.33;;;1.30;;
6864;SDS011;3471;49.678;8.388;2023-12-22T03:41:52;2.70;;;2.00;;
6864;SDS011;3471;49.678;8.388;2023-12-22T03:44:18;4.10;;;1.80;;
6864;SDS011;3471;49.678;8.388;2023-12-22T03:46:43;2.50;;;1.80;;
6864;SDS011;3471;49.678;8.388;2023-12-22T03:49:09;4.17;;;1.93;;
6864;SDS011;3471;49.678;8.388;2023-12-22T03:51:34;4.70;;;1.52;;
6864;SDS011;3471;49.678;8.388;2023-12-22T03:54:00;5.30;;;2.00;;
6864;SDS011;3471;49.678;8.388;2023-12-22T03:56:25;7.83;;;1.73;;
6864;SDS011;3471;49.678;8.388;2023-12-22T03:58:51;4.40;;;1.60;;
6864;SDS011;3471;49.678;8.388;2023-12-22T04:01:16;9.07;;;2.20;;
6864;SDS011;3471;49.678;8.388;2023-12-22T04:03:42;2.50;;;1.37;;
6864;SDS011;3471;49.678;8.388;2023-12-22T04:06:08;6.20;;;2.20;;
6864;SDS011;3471;49.678;8.388;2023-12-22T04:08:33;3.80;;;1.60;;
6864;SDS011;3471;49.678;8.388;2023-12-22T04:10:59;1.80;;;1.70;;
6864;SDS011;3471;49.678;8.388;2023-12-22T04:13:24;2.45;;;2.25;;
6864;SDS011;3471;49.678;8.388;2023-12-22T04:15:50;7.80;;;2.50;;
6864;SDS011;3471;49.678;8.388;2023-12-22T04:18:15;3.90;;;1.60;;
6864;SDS011;3471;49.678;8.388;2023-12-22T04:20:41;4.80;;;1.00;;
6864;SDS011;3471;49.678;8.388;2023-12-22T04:23:07;12.10;;;1.40;;
6864;SDS011;3471;49.678;8.388;2023-12-22T04:25:32;2.72;;;1.42;;
6864;SDS011;3471;49.678;8.388;2023-12-22T04:27:58;7.30;;;2.20;;
6864;SDS011;3471;49.678;8.388;2023-12-22T04:30:23;7.10;;;1.70;;
6864;SDS011;3471;49.678;8.388;2023-12-22T04:32:51;10.45;;;2.22;;
6864;SDS011;3471;49.678;8.388;2023-12-22T04:35:16;4.50;;;2.00;;
6864;SDS011;3471;49.678;8.388;2023-12-22T04:37:42;2.50;;;1.30;;
6864;SDS011;3471;49.678;8.388;2023-12-22T04:40:07;2.30;;;1.60;;
6864;SDS011;3471;49.678;8.388;2023-12-22T04:42:33;4.60;;;1.60;;
6864;SDS011;3471;49.678;8.388;2023-12-22T04:44:59;2.87;;;1.50;;
6864;SDS011;3471;49.678;8.388;2023-12-22T04:47:25;3.60;;;1.33;;
6864;SDS011;3471;49.678;8.388;2023-12-22T04:49:50;2.30;;;1.80;;
6864;SDS011;3471;49.678;8.388;2023-12-22T04:52:16;4.60;;;1.70;;
6864;SDS011;3471;49.678;8.388;2023-12-22T04:54:42;13.90;;;2.10;;
6864;SDS011;3471;49.678;8.388;2023-12-22T04:57:07;2.80;;;1.30;;
6864;SDS011;3471;49.678;8.388;2023-12-22T04:59:33;2.15;;;1.48;;
6864;SDS011;3471;49.678;8.388;2023-12-22T05:01:58;2.30;;;1.70;;
6864;SDS011;3471;49.678;8.388;2023-12-22T05:04:24;4.22;;;1.90;;
6864;SDS011;3471;49.678;8.388;2023-12-22T05:06:49;6.50;;;1.87;;
6864;SDS011;3471;49.678;8.388;2023-12-22T05:09:15;5.60;;;2.20;;
6864;SDS011;3471;49.678;8.388;2023-12-22T05:11:42;6.70;;;2.40;;
6864;SDS011;3471;49.678;8.388;2023-12-22T05:14:08;5.50;;;2.60;;
6864;SDS011;3471;49.678;8.388;2023-12-22T05:16:34;5.80;;;2.00;;
6864;SDS011;3471;49.678;8.388;2023-12-22T05:19:00;7.77;;;2.40;;
6864;SDS011;3471;49.678;8.388;2023-12-22T05:21:26;5.10;;;2.50;;
6864;SDS011;3471;49.678;8.388;2023-12-22T05:23:52;4.90;;;1.75;;
6864;SDS011;3471;49.678;8.388;2023-12-22T05:26:19;6.13;;;1.50;;
6864;SDS011;3471;49.678;8.388;2023-12-22T05:28:45;6.03;;;1.70;;
6864;SDS011;3471;49.678;8.388;2023-12-22T05:31:12;4.90;;;1.60;;
6864;SDS011;3471;49.678;8.388;2023-12-22T05:33:38;5.65;;;1.83;;
6864;SDS011;3471;49.678;8.388;2023-12-22T05:36:04;2.65;;;2.30;;
6864;SDS011;3471;49.678;8.388;2023-12-22T05:38:30;10.80;;;1.98;;
6864;SDS011;3471;49.678;8.388;2023-12-22T05:40:55;4.97;;;1.20;;
6864;SDS011;3471;49.678;8.388;2023-12-22T05:43:21;4.50;;;1.60;;
6864;SDS011;3471;49.678;8.388;2023-12-22T05:45:47;3.65;;;1.45;;
6864;SDS011;3471;49.678;8.388;2023-12-22T05:48:12;9.00;;;1.60;;
6864;SDS011;3471;49.678;8.388;2023-12-22T05:50:38;6.73;;;1.97;;
6864;SDS011;3471;49.678;8.388;2023-12-22T05:53:03;3.70;;;1.70;;
6864;SDS011;3471;49.678;8.388;2023-12-22T05:55:29;3.30;;;1.50;;
6864;SDS011;3471;49.678;8.388;2023-12-22T05:57:55;4.57;;;2.08;;
6864;SDS011;3471;49.678;8.388;2023-12-22T06:00:21;2.20;;;1.17;;
6864;SDS011;3471;49.678;8.388;2023-12-22T06:02:46;1.73;;;1.13;;
6864;SDS011;3471;49.678;8.388;2023-12-22T06:05:12;5.20;;;1.70;;
6864;SDS011;3471;49.678;8.388;2023-12-22T06:07:38;3.70;;;1.42;;
6864;SDS011;3471;49.678;8.388;2023-12-22T06:10:04;5.13;;;2.57;;
6864;SDS011;3471;49.678;8.388;2023-12-22T06:12:31;9.85;;;1.80;;
6864;SDS011;3471;49.678;8.388;2023-12-22T06:14:57;16.50;;;2.70;;
6864;SDS011;3471;49.678;8.388;2023-12-22T06:17:23;8.80;;;2.90;;
6864;SDS011;3471;49.678;8.388;2023-12-22T06:19:48;5.20;;;2.15;;
6864;SDS011;3471;49.678;8.388;2023-12-22T06:22:14;6.28;;;2.95;;
6864;SDS011;3471;49.678;8.388;2023-12-22T06:24:39;7.00;;;1.37;;
6864;SDS011;3471;49.678;8.388;2023-12-22T06:27:05;6.40;;;2.20;;
6864;SDS011;3471;49.678;8.388;2023-12-22T06:29:31;13.75;;;2.20;;
6864;SDS011;3471;49.678;8.388;2023-12-22T06:31:58;14.40;;;4.07;;
6864;SDS011;3471;49.678;8.388;2023-12-22T06:34:24;6.17;;;2.57;;
6864;SDS011;3471;49.678;8.388;2023-12-22T06:36:50;12.25;;;2.90;;
6864;SDS011;3471;49.678;8.388;2023-12-22T06:39:16;11.18;;;2.50;;
6864;SDS011;3471;49.678;8.388;2023-12-22T06:41:42;13.80;;;3.70;;
6864;SDS011;3471;49.678;8.388;2023-12-22T06:44:07;21.40;;;3.17;;
6864;SDS011;3471;49.678;8.388;2023-12-22T06:46:35;5.10;;;2.20;;
6864;SDS011;3471;49.678;8.388;2023-12-22T06:49:01;8.13;;;1.85;;
6864;SDS011;3471;49.678;8.388;2023-12-22T06:51:27;9.50;;;2.60;;
6864;SDS011;3471;49.678;8.388;2023-12-22T06:53:59;12.93;;;2.42;;
6864;SDS011;3471;49.678;8.388;2023-12-22T06:56:26;10.60;;;2.93;;
6864;SDS011;3471;49.678;8.388;2023-12-22T06:58:53;17.90;;;2.20;;
6864;SDS011;3471;49.678;8.388;2023-12-22T07:01:22;12.85;;;2.65;;
6864;SDS011;3471;49.678;8.388;2023-12-22T07:03:49;14.15;;;3.95;;
6864;SDS011;3471;49.678;8.388;2023-12-22T07:06:15;4.82;;;2.15;;
6864;SDS011;3471;49.678;8.388;2023-12-22T07:08:42;13.65;;;2.40;;
6864;SDS011;3471;49.678;8.388;2023-12-22T07:11:11;3.70;;;2.50;;
6864;SDS011;3471;49.678;8.388;2023-12-22T07:13:37;7.07;;;1.90;;
6864;SDS011;3471;49.678;8.388;2023-12-22T07:16:03;6.18;;;2.33;;
6864;SDS011;3471;49.678;8.388;2023-12-22T07:18:30;6.93;;;2.08;;
6864;SDS011;3471;49.678;8.388;2023-12-22T07:20:56;11.18;;;3.58;;
6864;SDS011;3471;49.678;8.388;2023-12-22T07:23:22;17.25;;;2.35;;
6864;SDS011;3471;49.678;8.388;2023-12-22T07:25:48;7.75;;;2.03;;
6864;SDS011;3471;49.678;8.388;2023-12-22T07:28:13;6.90;;;2.37;;
6864;SDS011;3471;49.678;8.388;2023-12-22T07:30:40;6.57;;;2.88;;
6864;SDS011;3471;49.678;8.388;2023-12-22T07:33:06;3.92;;;1.80;;
6864;SDS011;3471;49.678;8.388;2023-12-22T07:35:32;3.60;;;1.73;;
6864;SDS011;3471;49.678;8.388;2023-12-22T07:37:57;11.60;;;2.80;;
6864;SDS011;3471;49.678;8.388;2023-12-22T07:40:23;13.97;;;1.63;;
6864;SDS011;3471;49.678;8.388;2023-12-22T07:42:48;4.10;;;2.08;;
6864;SDS011;3471;49.678;8.388;2023-12-22T07:45:15;7.15;;;1.48;;
6864;SDS011;3471;49.678;8.388;2023-12-22T07:47:41;9.10;;;1.80;;
6864;SDS011;3471;49.678;8.388;2023-12-22T07:50:07;2.80;;;1.33;;
6864;SDS011;3471;49.678;8.388;2023-12-22T07:52:33;5.68;;;1.20;;
6864;SDS011;3471;49.678;8.388;2023-12-22T07:55:02;1.80;;;1.30;;
6864;SDS011;3471;49.678;8.388;2023-12-22T07:57:29;1.85;;;1.00;;
6864;SDS011;3471;49.678;8.388;2023-12-22T07:59:55;2.27;;;1.50;;
6864;SDS011;3471;49.678;8.388;2023-12-22T08:02:21;3.60;;;1.90;;
6864;SDS011;3471;49.678;8.388;2023-12-22T08:04:47;3.10;;;1.00;;
6864;SDS011;3471;49.678;8.388;2023-12-22T08:07:15;5.90;;;1.50;;
6864;SDS011;3471;49.678;8.388;2023-12-22T08:09:41;3.70;;;1.40;;
6864;SDS011;3471;49.678;8.388;2023-12-22T08:12:07;2.20;;;1.00;;
6864;SDS011;3471;49.678;8.388;2023-12-22T08:14:32;8.55;;;1.27;;
6864;SDS011;3471;49.678;8.388;2023-12-22T08:16:58;1.50;;;1.00;;
6864;SDS011;3471;49.678;8.388;2023-12-22T08:19:23;8.50;;;2.00;;
6864;SDS011;3471;49.678;8.388;2023-12-22T08:21:51;3.03;;;0.93;;
6864;SDS011;3471;49.678;8.388;2023-12-22T08:24:18;7.85;;;1.63;;
6864;SDS011;3471;49.678;8.388;2023-12-22T08:26:44;1.70;;;1.20;;
6864;SDS011;3471;49.678;8.388;2023-12-22T08:29:10;2.87;;;1.20;;
6864;SDS011;3471;49.678;8.388;2023-12-22T08:31:35;5.30;;;1.30;;
6864;SDS011;3471;49.678;8.388;2023-12-22T08:34:01;3.30;;;1.07;;
6864;SDS011;3471;49.678;8.388;2023-12-22T08:36:26;2.60;;;1.40;;
6864;SDS011;3471;49.678;8.388;2023-12-22T08:38:52;1.30;;;0.90;;
6864;SDS011;3471;49.678;8.388;2023-12-22T08:41:18;3.10;;;1.20;;
6864;SDS011;3471;49.678;8.388;2023-12-22T08:43:43;1.30;;;0.90;;
6864;SDS011;3471;49.678;8.388;2023-12-22T08:46:09;12.07;;;1.97;;
6864;SDS011;3471;49.678;8.388;2023-12-22T08:48:35;1.60;;;1.25;;
6864;SDS011;3471;49.678;8.388;2023-12-22T08:51:01;6.40;;;1.40;;
6864;SDS011;3471;49.678;8.388;2023-12-22T08:53:26;6.82;;;2.20;;
6864;SDS011;3471;49.678;8.388;2023-12-22T08:55:55;4.80;;;2.58;;
6864;SDS011;3471;49.678;8.388;2023-12-22T08:58:21;3.88;;;1.20;;
6864;SDS011;3471;49.678;8.388;2023-12-22T09:00:47;6.85;;;1.30;;
6864;SDS011;3471;49.678;8.388;2023-12-22T09:03:13;9.00;;;1.37;;
6864;SDS011;3471;49.678;8.388;2023-12-22T09:05:38;6.00;;;1.65;;
6864;SDS011;3471;49.678;8.388;2023-12-22T09:08:04;9.73;;;2.80;;
6864;SDS011;3471;49.678;8.388;2023-12-22T09:10:30;14.52;;;2.95;;
6864;SDS011;3471;49.678;8.388;2023-12-22T09:12:57;8.52;;;3.45;;
6864;SDS011;3471;49.678;8.388;2023-12-22T09:15:23;5.30;;;1.97;;
6864;SDS011;3471;49.678;8.388;2023-12-22T09:17:48;12.48;;;2.42;;
6864;SDS011;3471;49.678;8.388;2023-12-22T09:20:16;18.95;;;2.72;;
6864;SDS011;3471;49.678;8.388;2023-12-22T09:22:42;6.90;;;3.50;;
6864;SDS011;3471;49.678;8.388;2023-12-22T09:25:08;6.03;;;3.10;;
6864;SDS011;3471;49.678;8.388;2023-12-22T09:27:36;11.73;;;4.15;;
6864;SDS011;3471;49.678;8.388;2023-12-22T09:30:02;9.02;;;2.88;;
6864;SDS011;3471;49.678;8.388;2023-12-22T09:32:29;12.27;;;2.63;;
6864;SDS011;3471;49.678;8.388;2023-12-22T09:34:55;5.10;;;3.17;;
6864;SDS011;3471;49.678;8.388;2023-12-22T09:37:24;13.38;;;4.32;;
6864;SDS011;3471;49.678;8.388;2023-12-22T09:39:49;10.17;;;3.50;;
6864;SDS011;3471;49.678;8.388;2023-12-22T09:42:15;17.70;;;3.93;;
6864;SDS011;3471;49.678;8.388;2023-12-22T09:44:41;14.57;;;3.10;;
6864;SDS011;3471;49.678;8.388;2023-12-22T09:47:08;8.40;;;3.45;;
6864;SDS011;3471;49.678;8.388;2023-12-22T09:49:37;14.55;;;4.53;;
6864;SDS011;3471;49.678;8.388;2023-12-22T09:52:04;12.32;;;2.95;;
6864;SDS011;3471;49.678;8.388;2023-12-22T09:54:31;9.73;;;3.17;;
6864;SDS011;3471;49.678;8.388;2023-12-22T09:56:57;5.30;;;2.70;;
6864;SDS011;3471;49.678;8.388;2023-12-22T09:59:24;10.75;;;3.35;;
6864;SDS011;3471;49.678;8.388;2023-12-22T10:01:51;8.60;;;3.95;;
6864;SDS011;3471;49.678;8.388;2023-12-22T10:04:19;9.05;;;3.80;;
6864;SDS011;3471;49.678;8.388;2023-12-22T10:06:46;7.70;;;3.60;;
6864;SDS011;3471;49.678;8.388;2023-12-22T10:09:13;18.15;;;4.18;;
6864;SDS011;3471;49.678;8.388;2023-12-22T10:11:41;12.60;;;4.40;;
6864;SDS011;3471;49.678;8.388;2023-12-22T10:14:09;10.48;;;3.33;;
6864;SDS011;3471;49.678;8.388;2023-12-22T10:16:38;11.40;;;2.40;;
6864;SDS011;3471;49.678;8.388;2023-12-22T10:19:05;20.23;;;5.05;;
6864;SDS011;3471;49.678;8.388;2023-12-22T10:21:31;11.15;;;3.00;;
6864;SDS011;3471;49.678;8.388;2023-12-22T10:23:57;11.80;;;3.90;;
6864;SDS011;3471;49.678;8.388;2023-12-22T10:26:22;9.20;;;3.92;;
6864;SDS011;3471;49.678;8.388;2023-12-22T10:28:48;9.03;;;3.20;;
6864;SDS011;3471;49.678;8.388;2023-12-22T10:31:14;8.38;;;3.67;;
6864;SDS011;3471;49.678;8.388;2023-12-22T10:33:40;7.90;;;4.35;;
6864;SDS011;3471;49.678;8.388;2023-12-22T10:36:07;6.80;;;2.70;;
6864;SDS011;3471;49.678;8.388;2023-12-22T10:38:33;11.02;;;2.67;;
6864;SDS011;3471;49.678;8.388;2023-12-22T10:41:05;15.73;;;4.57;;
6864;SDS011;3471;49.678;8.388;2023-12-22T10:43:39;11.65;;;3.33;;
6864;SDS011;3471;49.678;8.388;2023-12-22T10:46:05;13.40;;;3.42;;
6864;SDS011;3471;49.678;8.388;2023-12-22T10:48:33;32.40;;;5.30;;
6864;SDS011;3471;49.678;8.388;2023-12-22T10:50:58;6.50;;;3.42;;
6864;SDS011;3471;49.678;8.388;2023-12-22T10:53:24;15.70;;;3.63;;
6864;SDS011;3471;49.678;8.388;2023-12-22T10:55:50;8.68;;;4.25;;
6864;SDS011;3471;49.678;8.388;2023-12-22T10:58:16;22.38;;;3.20;;
6864;SDS011;3471;49.678;8.388;2023-12-22T11:00:44;14.18;;;5.57;;
6864;SDS011;3471;49.678;8.388;2023-12-22T11:03:12;25.60;;;4.00;;
6864;SDS011;3471;49.678;8.388;2023-12-22T11:05:43;15.93;;;3.53;;
6864;SDS011;3471;49.678;8.388;2023-12-22T11:08:11;9.52;;;2.83;;
6864;SDS011;3471;49.678;8.388;2023-12-22T11:10:37;6.90;;;3.30;;
6864;SDS011;3471;49.678;8.388;2023-12-22T11:13:08;7.13;;;3.15;;
6864;SDS011;3471;49.678;8.388;2023-12-22T11:15:35;14.13;;;4.88;;
6864;SDS011;3471;49.678;8.388;2023-12-22T11:18:02;11.38;;;3.33;;
6864;SDS011;3471;49.678;8.388;2023-12-22T11:20:30;6.13;;;2.38;;
6864;SDS011;3471;49.678;8.388;2023-12-22T11:22:57;9.35;;;2.92;;
6864;SDS011;3471;49.678;8.388;2023-12-22T11:25:25;11.18;;;3.92;;
6864;SDS011;3471;49.678;8.388;2023-12-22T11:27:52;17.33;;;3.28;;
6864;SDS011;3471;49.678;8.388;2023-12-22T11:30:21;7.00;;;2.83;;
6864;SDS011;3471;49.678;8.388;2023-12-22T11:32:49;4.68;;;2.40;;
6864;SDS011;3471;49.678;8.388;2023-12-22T11:35:15;9.98;;;4.07;;
6864;SDS011;3471;49.678;8.388;2023-12-22T11:37:42;14.77;;;2.85;;
6864;SDS011;3471;49.678;8.388;2023-12-22T11:40:09;12.85;;;2.50;;
6864;SDS011;3471;49.678;8.388;2023-12-22T11:42:35;22.40;;;3.22;;
6864;SDS011;3471;49.678;8.388;2023-12-22T11:45:09;14.50;;;2.97;;
6864;SDS011;3471;49.678;8.388;2023-12-22T11:47:37;13.30;;;2.50;;
6864;SDS011;3471;49.678;8.388;2023-12-22T11:50:02;14.98;;;3.42;;
6864;SDS011;3471;49.678;8.388;2023-12-22T11:52:29;7.35;;;3.88;;
6864;SDS011;3471;49.678;8.388;2023-12-22T11:54:55;9.90;;;3.55;;
6864;SDS011;3471;49.678;8.388;2023-12-22T11:59:56;10.75;;;2.92;;
6864;SDS011;3471;49.678;8.388;2023-12-22T12:02:23;6.10;;;2.75;;
6864;SDS011;3471;49.678;8.388;2023-12-22T12:04:52;18.63;;;4.30;;
6864;SDS011;3471;49.678;8.388;2023-12-22T12:10:04;15.00;;;3.33;;
6864;SDS011;3471;49.678;8.388;2023-12-22T12:12:31;4.18;;;1.70;;
6864;SDS011;3471;49.678;8.388;2023-12-22T12:14:59;8.90;;;3.53;;
6864;SDS011;3471;49.678;8.388;2023-12-22T12:17:32;10.10;;;3.20;;
6864;SDS011;3471;49.678;8.388;2023-12-22T12:19:57;2.30;;;1.45;;
6864;SDS011;3471;49.678;8.388;2023-12-22T12:22:24;5.10;;;1.97;;
6864;SDS011;3471;49.678;8.388;2023-12-22T12:24:51;4.22;;;1.85;;
6864;SDS011;3471;49.678;8.388;2023-12-22T12:27:17;3.70;;;2.33;;
6864;SDS011;3471;49.678;8.388;2023-12-22T12:29:44;3.40;;;1.70;;
6864;SDS011;3471;49.678;8.388;2023-12-22T12:32:10;3.50;;;1.70;;
6864;SDS011;3471;49.678;8.388;2023-12-22T12:34:42;3.20;;;1.23;;
6864;SDS011;3471;49.678;8.388;2023-12-22T12:37:08;18.30;;;2.90;;
6864;SDS011;3471;49.678;8.388;2023-12-22T12:39:34;3.40;;;1.50;;
6864;SDS011;3471;49.678;8.388;2023-12-22T12:42:00;3.50;;;1.80;;
6864;SDS011;3471;49.678;8.388;2023-12-22T12:44:27;2.80;;;1.50;;
6864;SDS011;3471;49.678;8.388;2023-12-22T12:46:54;3.72;;;1.88;;
6864;SDS011;3471;49.678;8.388;2023-12-22T12:49:20;4.32;;;1.77;;
6864;SDS011;3471;49.678;8.388;2023-12-22T12:51:49;3.10;;;1.40;;
6864;SDS011;3471;49.678;8.388;2023-12-22T12:54:15;1.40;;;1.00;;
6864;SDS011;3471;49.678;8.388;2023-12-22T12:56:41;3.10;;;1.40;;
6864;SDS011;3471;49.678;8.388;2023-12-22T12:59:12;1.60;;;0.95;;
6864;SDS011;3471;49.678;8.388;2023-12-22T13:01:39;3.90;;;1.73;;
6864;SDS011;3471;49.678;8.388;2023-12-22T13:04:05;4.60;;;1.60;;
6864;SDS011;3471;49.678;8.388;2023-12-22T13:06:31;1.90;;;1.08;;
6864;SDS011;3471;49.678;8.388;2023-12-22T13:08:57;6.10;;;1.70;;
6864;SDS011;3471;49.678;8.388;2023-12-22T13:11:27;1.83;;;1.47;;
6864;SDS011;3471;49.678;8.388;2023-12-22T13:13:57;5.07;;;1.35;;
6864;SDS011;3471;49.678;8.388;2023-12-22T13:16:23;3.58;;;1.15;;
6864;SDS011;3471;49.678;8.388;2023-12-22T13:18:55;3.00;;;1.40;;
6864;SDS011;3471;49.678;8.388;2023-12-22T13:21:22;2.80;;;1.02;;
6864;SDS011;3471;49.678;8.388;2023-12-22T13:24:10;1.60;;;1.00;;
6864;SDS011;3471;49.678;8.388;2023-12-22T13:26:38;2.50;;;1.10;;
6864;SDS011;3471;49.678;8.388;2023-12-22T13:29:05;2.03;;;1.20;;
6864;SDS011;3471;49.678;8.388;2023-12-22T13:31:31;1.80;;;1.10;;
6864;SDS011;3471;49.678;8.388;2023-12-22T13:33:58;4.90;;;1.40;;
6864;SDS011;3471;49.678;8.388;2023-12-22T13:36:26;1.25;;;0.70;;
6864;SDS011;3471;49.678;8.388;2023-12-22T13:38:52;1.30;;;0.80;;
6864;SDS011;3471;49.678;8.388;2023-12-22T13:41:18;1.70;;;1.00;;
6864;SDS011;3471;49.678;8.388;2023-12-22T13:43:45;1.63;;;0.90;;
6864;SDS011;3471;49.678;8.388;2023-12-22T13:46:12;3.70;;;1.00;;
6864;SDS011;3471;49.678;8.388;2023-12-22T13:48:39;2.90;;;1.20;;
6864;SDS011;3471;49.678;8.388;2023-12-22T13:51:05;1.60;;;0.90;;
6864;SDS011;3471;49.678;8.388;2023-12-22T13:53:31;1.30;;;0.80;;
6864;SDS011;3471;49.678;8.388;2023-12-22T13:55:57;1.40;;;0.77;;
6864;SDS011;3471;49.678;8.388;2023-12-22T13:58:23;1.73;;;1.00;;
6864;SDS011;3471;49.678;8.388;2023-12-22T14:00:50;2.50;;;0.90;;
6864;SDS011;3471;49.678;8.388;2023-12-22T14:03:16;2.00;;;1.00;;
6864;SDS011;3471;49.678;8.388;2023-12-22T14:05:42;1.90;;;1.00;;
6864;SDS011;3471;49.678;8.388;2023-12-22T14:08:08;2.20;;;0.90;;
6864;SDS011;3471;49.678;8.388;2023-12-22T14:10:34;2.72;;;1.52;;
6864;SDS011;3471;49.678;8.388;2023-12-22T14:13:00;1.30;;;0.80;;
6864;SDS011;3471;49.678;8.388;2023-12-22T14:15:25;2.30;;;1.00;;
6864;SDS011;3471;49.678;8.388;2023-12-22T14:17:54;1.77;;;0.90;;
6864;SDS011;3471;49.678;8.388;2023-12-22T14:20:20;1.70;;;1.00;;
6864;SDS011;3471;49.678;8.388;2023-12-22T14:22:46;2.40;;;1.25;;
6864;SDS011;3471;49.678;8.388;2023-12-22T14:25:11;1.70;;;1.10;;
6864;SDS011;3471;49.678;8.388;2023-12-22T14:27:37;1.30;;;0.70;;
6864;SDS011;3471;49.678;8.388;2023-12-22T14:30:03;2.28;;;1.48;;
6864;SDS011;3471;49.678;8.388;2023-12-22T14:32:29;1.60;;;0.90;;
6864;SDS011;3471;49.678;8.388;2023-12-22T14:34:55;1.30;;;0.73;;
6864;SDS011;3471;49.678;8.388;2023-12-22T14:37:20;1.30;;;0.80;;
6864;SDS011;3471;49.678;8.388;2023-12-22T14:39:46;1.60;;;0.87;;
6864;SDS011;3471;49.678;8.388;2023-12-22T14:42:12;1.50;;;0.80;;
6864;SDS011;3471;49.678;8.388;2023-12-22T14:44:38;1.30;;;0.85;;
6864;SDS011;3471;49.678;8.388;2023-12-22T14:47:05;1.60;;;0.90;;
6864;SDS011;3471;49.678;8.388;2023-12-22T14:49:31;1.50;;;0.90;;
6864;SDS011;3471;49.678;8.388;2023-12-22T14:51:56;1.30;;;0.80;;
6864;SDS011;3471;49.678;8.388;2023-12-22T14:54:23;1.88;;;0.95;;
6864;SDS011;3471;49.678;8.388;2023-12-22T14:56:49;1.50;;;1.02;;
6864;SDS011;3471;49.678;8.388;2023-12-22T14:59:15;2.20;;;0.90;;
6864;SDS011;3471;49.678;8.388;2023-12-22T15:01:41;1.30;;;0.70;;
6864;SDS011;3471;49.678;8.388;2023-12-22T15:04:07;2.90;;;1.00;;
6864;SDS011;3471;49.678;8.388;2023-12-22T15:06:37;2.40;;;1.00;;
6864;SDS011;3471;49.678;8.388;2023-12-22T15:09:04;1.30;;;0.80;;
6864;SDS011;3471;49.678;8.388;2023-12-22T15:11:29;2.30;;;1.00;;
6864;SDS011;3471;49.678;8.388;2023-12-22T15:13:55;1.30;;;0.60;;
6864;SDS011;3471;49.678;8.388;2023-12-22T15:16:20;1.30;;;0.80;;